Pagrindinis puslapis
METAR-TAF:

METAR-TAF

Oro uostai :

Dalianas, Kinija

platuma: 38-54N, ilguma: 121-38E, Aukštis: 97 m

Dabartinis oras

Ataskaita buvo paskelbta 29 minutes, ne 23:30 UTC
Vėjas 2 kt nuo kintamojo kryptimis
Temperatūra 9°C
Drėgmė 53%
Slėgis 1018 hPa
Matomumas 10 km arba daugiau
nėra debesų žemiau 1500 m ir nėra kamuolinių lietaus debesų

METAR: ZYTL 302330Z VRB01MPS CAVOK 09/M00 Q1018 NOSIG

Laikas: 07:59 (23:59 UTC)

Prognozė

Ataskaita buvo paskelbta 2 valandos ir 46 minutes, ne 21:13 UTC
Prognozė galioja nuo 31 metu 00 UTC su 31 metu 24 UTC
Vėjas 8 kt iš Pietų
Matomumas: 5000 m
Mažai debesys ne aukštis 3300 ft
rūkana
Tapsmas
nuo 31 metu 14 UTC su 31 metu 15 UTC
Vėjas 10 kt iš Šiaurės

TAF: ZYTL 302113Z 3100/3124 19004MPS 5000 BR FEW033 TX16/3106Z TN04/3121Z BECMG 3114/3115 35005MPS

Orai ataskaitas ir orų prognozės (METAR, TAF).

turimą stotys yra geltonos ir raudonos taškus žemėlapyje.

Perkelti pele per norėdami pamatyti stoties vardą.

Tada spustelėkite, norėdami matyti oro stebėjimo ir prognozės.

Norėdami pakeisti žemėlapį: spustelėkite ant žalios mygtukų su juodo kryžiaus žemyn,; žalią mygtuką su brūkšneliu, jei norite nutolinti; arba žalių rodyklių gretimoms žemėlapius.


METAR-TAF: